sensor_id;sensor_type;location;lat;lon;timestamp;pressure;altitude;pressure_sealevel;temperature;humidity
73651;BME280;61944;52.538;6.108;2023-10-19T00:00:41;99328.66;;;8.70;100.00
73651;BME280;61944;52.538;6.108;2023-10-19T00:03:11;99329.50;;;8.71;100.00
73651;BME280;61944;52.538;6.108;2023-10-19T00:05:37;99316.72;;;8.70;100.00
73651;BME280;61944;52.538;6.108;2023-10-19T00:08:05;99310.38;;;8.62;100.00
73651;BME280;61944;52.538;6.108;2023-10-19T00:10:44;99309.56;;;8.65;100.00
73651;BME280;61944;52.538;6.108;2023-10-19T00:13:11;99311.97;;;8.63;100.00
73651;BME280;61944;52.538;6.108;2023-10-19T00:15:41;99309.56;;;8.65;100.00
73651;BME280;61944;52.538;6.108;2023-10-19T00:18:27;99312.31;;;8.76;100.00
73651;BME280;61944;52.538;6.108;2023-10-19T00:20:54;99303.97;;;8.72;100.00
73651;BME280;61944;52.538;6.108;2023-10-19T00:23:36;99296.41;;;8.69;100.00
73651;BME280;61944;52.538;6.108;2023-10-19T00:26:02;99300.38;;;8.72;100.00
73651;BME280;61944;52.538;6.108;2023-10-19T00:28:50;99298.38;;;8.72;100.00
73651;BME280;61944;52.538;6.108;2023-10-19T00:31:21;99288.41;;;8.79;100.00
73651;BME280;61944;52.538;6.108;2023-10-19T00:33:46;99290.41;;;8.74;100.00
73651;BME280;61944;52.538;6.108;2023-10-19T00:36:12;99284.81;;;8.74;100.00
73651;BME280;61944;52.538;6.108;2023-10-19T00:38:41;99274.50;;;8.68;100.00
73651;BME280;61944;52.538;6.108;2023-10-19T00:41:18;99276.06;;;8.72;100.00
73651;BME280;61944;52.538;6.108;2023-10-19T00:43:49;99270.47;;;8.76;100.00
73651;BME280;61944;52.538;6.108;2023-10-19T00:46:16;99263.28;;;8.79;100.00
73651;BME280;61944;52.538;6.108;2023-10-19T00:48:48;99270.88;;;8.78;100.00
73651;BME280;61944;52.538;6.108;2023-10-19T00:51:16;99256.91;;;8.78;100.00
73651;BME280;61944;52.538;6.108;2023-10-19T00:54:17;99252.94;;;8.79;100.00
73651;BME280;61944;52.538;6.108;2023-10-19T00:56:51;99247.72;;;8.88;100.00
73651;BME280;61944;52.538;6.108;2023-10-19T00:59:19;99236.94;;;8.87;100.00
73651;BME280;61944;52.538;6.108;2023-10-19T01:01:50;99242.56;;;8.80;100.00
73651;BME280;61944;52.538;6.108;2023-10-19T01:04:18;99233.78;;;8.81;100.00
73651;BME280;61944;52.538;6.108;2023-10-19T01:06:49;99236.94;;;8.87;100.00
73651;BME280;61944;52.538;6.108;2023-10-19T01:09:37;99226.56;;;8.94;100.00
73651;BME280;61944;52.538;6.108;2023-10-19T01:12:04;99226.56;;;8.94;100.00
73651;BME280;61944;52.538;6.108;2023-10-19T01:17:36;99219.41;;;8.90;100.00
73651;BME280;61944;52.538;6.108;2023-10-19T01:20:09;99221.81;;;8.88;100.00
73651;BME280;61944;52.538;6.108;2023-10-19T01:23:02;99217.00;;;8.92;100.00
73651;BME280;61944;52.538;6.108;2023-10-19T01:25:48;99216.63;;;8.86;100.00
73651;BME280;61944;52.538;6.108;2023-10-19T01:28:20;99218.56;;;8.93;100.00
73651;BME280;61944;52.538;6.108;2023-10-19T01:31:04;99222.16;;;8.97;100.00
73651;BME280;61944;52.538;6.108;2023-10-19T01:33:32;99214.56;;;8.98;100.00
73651;BME280;61944;52.538;6.108;2023-10-19T01:36:00;99209.03;;;8.94;100.00
73651;BME280;61944;52.538;6.108;2023-10-19T01:38:39;99210.53;;;9.06;100.00
73651;BME280;61944;52.538;6.108;2023-10-19T01:41:06;99211.34;;;9.03;100.00
73651;BME280;61944;52.538;6.108;2023-10-19T01:43:53;99216.50;;;9.04;100.00
73651;BME280;61944;52.538;6.108;2023-10-19T01:46:20;99211.31;;;9.06;100.00
73651;BME280;61944;52.538;6.108;2023-10-19T01:49:02;99210.91;;;9.11;100.00
73651;BME280;61944;52.538;6.108;2023-10-19T01:51:30;99203.31;;;9.08;100.00
73651;BME280;61944;52.538;6.108;2023-10-19T01:53:58;99205.72;;;9.06;100.00
73651;BME280;61944;52.538;6.108;2023-10-19T01:56:24;99195.78;;;9.09;100.00
73651;BME280;61944;52.538;6.108;2023-10-19T01:58:50;99188.97;;;9.10;100.00
73651;BME280;61944;52.538;6.108;2023-10-19T02:01:20;99200.09;;;9.17;100.00
73651;BME280;61944;52.538;6.108;2023-10-19T02:03:47;99188.56;;;9.15;100.00
73651;BME280;61944;52.538;6.108;2023-10-19T02:06:14;99186.53;;;9.15;100.00
73651;BME280;61944;52.538;6.108;2023-10-19T02:08:52;99177.34;;;9.19;100.00
73651;BME280;61944;52.538;6.108;2023-10-19T02:11:22;99187.31;;;9.20;100.00
73651;BME280;61944;52.538;6.108;2023-10-19T02:13:57;99169.34;;;9.24;100.00
73651;BME280;61944;52.538;6.108;2023-10-19T02:16:26;99169.34;;;9.24;100.00
73651;BME280;61944;52.538;6.108;2023-10-19T02:18:54;99177.72;;;9.21;100.00
73651;BME280;61944;52.538;6.108;2023-10-19T02:21:20;99186.94;;;9.18;100.00
73651;BME280;61944;52.538;6.108;2023-10-19T02:23:52;99166.56;;;9.21;100.00
73651;BME280;61944;52.538;6.108;2023-10-19T02:26:21;99147.41;;;9.23;100.00
73651;BME280;61944;52.538;6.108;2023-10-19T02:28:56;99153.72;;;9.30;100.00
73651;BME280;61944;52.538;6.108;2023-10-19T02:31:23;99168.56;;;9.20;100.00
73651;BME280;61944;52.538;6.108;2023-10-19T02:33:51;99163.38;;;9.22;100.00
73651;BME280;61944;52.538;6.108;2023-10-19T02:36:30;99152.97;;;9.23;100.00
73651;BME280;61944;52.538;6.108;2023-10-19T02:39:00;99155.28;;;9.35;100.00
73651;BME280;61944;52.538;6.108;2023-10-19T02:41:35;99148.53;;;9.32;100.00
73651;BME280;61944;52.538;6.108;2023-10-19T02:44:02;99146.50;;;9.36;100.00
73651;BME280;61944;52.538;6.108;2023-10-19T02:46:57;99144.50;;;9.37;100.00
73651;BME280;61944;52.538;6.108;2023-10-19T02:49:30;99141.69;;;9.37;100.00
73651;BME280;61944;52.538;6.108;2023-10-19T02:51:56;99132.88;;;9.42;100.00
73651;BME280;61944;52.538;6.108;2023-10-19T02:54:28;99132.88;;;9.42;100.00
73651;BME280;61944;52.538;6.108;2023-10-19T02:56:58;99136.84;;;9.45;100.00
73651;BME280;61944;52.538;6.108;2023-10-19T02:59:25;99130.47;;;9.44;100.00
73651;BME280;61944;52.538;6.108;2023-10-19T03:01:57;99139.97;;;9.54;100.00
73651;BME280;61944;52.538;6.108;2023-10-19T03:04:38;99154.31;;;9.52;100.00
73651;BME280;61944;52.538;6.108;2023-10-19T03:07:05;99125.72;;;9.38;100.00
73651;BME280;61944;52.538;6.108;2023-10-19T03:09:31;99136.78;;;9.52;100.00
73651;BME280;61944;52.538;6.108;2023-10-19T03:12:01;99142.44;;;9.45;100.00
73651;BME280;61944;52.538;6.108;2023-10-19T03:14:31;99132.09;;;9.42;100.00
73651;BME280;61944;52.538;6.108;2023-10-19T03:16:58;99147.16;;;9.55;100.00
73651;BME280;61944;52.538;6.108;2023-10-19T03:19:24;99140.34;;;9.56;100.00
73651;BME280;61944;52.538;6.108;2023-10-19T03:21:50;99132.75;;;9.56;100.00
73651;BME280;61944;52.538;6.108;2023-10-19T03:24:17;99130.00;;;9.53;100.00
73651;BME280;61944;52.538;6.108;2023-10-19T03:27:01;99129.47;;;9.65;100.00
73651;BME280;61944;52.538;6.108;2023-10-19T03:29:26;99135.50;;;9.60;100.00
73651;BME280;61944;52.538;6.108;2023-10-19T03:31:57;99134.28;;;9.61;100.00
73651;BME280;61944;52.538;6.108;2023-10-19T03:34:24;99137.53;;;9.60;100.00
73651;BME280;61944;52.538;6.108;2023-10-19T03:36:50;99125.06;;;9.68;100.00
73651;BME280;61944;52.538;6.108;2023-10-19T03:39:19;99126.63;;;9.69;100.00
73651;BME280;61944;52.538;6.108;2023-10-19T03:41:46;99133.28;;;9.82;100.00
73651;BME280;61944;52.538;6.108;2023-10-19T03:44:12;99123.75;;;9.76;100.00
73651;BME280;61944;52.538;6.108;2023-10-19T03:47:00;99116.59;;;9.75;100.00
73651;BME280;61944;52.538;6.108;2023-10-19T03:49:39;99118.91;;;9.84;100.00
73651;BME280;61944;52.538;6.108;2023-10-19T03:52:06;99125.22;;;9.91;100.00
73651;BME280;61944;52.538;6.108;2023-10-19T03:54:35;99114.41;;;9.93;100.00
73651;BME280;61944;52.538;6.108;2023-10-19T03:57:09;99123.63;;;9.90;100.00
73651;BME280;61944;52.538;6.108;2023-10-19T03:59:41;99118.78;;;9.94;100.00
73651;BME280;61944;52.538;6.108;2023-10-19T04:02:07;99118.38;;;9.96;100.00
73651;BME280;61944;52.538;6.108;2023-10-19T04:04:39;99113.97;;;9.95;100.00
73651;BME280;61944;52.538;6.108;2023-10-19T04:07:09;99109.09;;;10.03;100.00
73651;BME280;61944;52.538;6.108;2023-10-19T04:09:54;99112.69;;;10.03;100.00
73651;BME280;61944;52.538;6.108;2023-10-19T04:12:33;99111.00;;;10.09;100.00
73651;BME280;61944;52.538;6.108;2023-10-19T04:15:02;99110.59;;;10.11;100.00
73651;BME280;61944;52.538;6.108;2023-10-19T04:17:37;99120.16;;;10.13;100.00
73651;BME280;61944;52.538;6.108;2023-10-19T04:20:08;99107.44;;;10.09;100.00
73651;BME280;61944;52.538;6.108;2023-10-19T04:22:54;99102.22;;;10.11;100.00
73651;BME280;61944;52.538;6.108;2023-10-19T04:25:19;99096.13;;;10.20;100.00
73651;BME280;61944;52.538;6.108;2023-10-19T04:27:46;99102.47;;;10.24;100.00
73651;BME280;61944;52.538;6.108;2023-10-19T04:30:13;99098.41;;;10.28;100.00
73651;BME280;61944;52.538;6.108;2023-10-19T04:32:45;99093.94;;;10.34;100.00
73651;BME280;61944;52.538;6.108;2023-10-19T04:35:12;99092.00;;;10.31;100.00
73651;BME280;61944;52.538;6.108;2023-10-19T04:37:52;99087.91;;;10.40;100.00
73651;BME280;61944;52.538;6.108;2023-10-19T04:40:19;99081.72;;;10.21;100.00
73651;BME280;61944;52.538;6.108;2023-10-19T04:42:46;99087.81;;;10.47;100.00
73651;BME280;61944;52.538;6.108;2023-10-19T04:45:12;99082.16;;;10.50;100.00
73651;BME280;61944;52.538;6.108;2023-10-19T04:47:38;99081.38;;;10.50;100.00
73651;BME280;61944;52.538;6.108;2023-10-19T04:50:07;99092.59;;;10.46;100.00
73651;BME280;61944;52.538;6.108;2023-10-19T04:52:33;99082.19;;;10.47;100.00
73651;BME280;61944;52.538;6.108;2023-10-19T04:54:59;99091.59;;;10.60;100.00
73651;BME280;61944;52.538;6.108;2023-10-19T04:57:25;99098.78;;;10.61;100.00
73651;BME280;61944;52.538;6.108;2023-10-19T04:59:51;99089.63;;;10.61;100.00
73651;BME280;61944;52.538;6.108;2023-10-19T05:02:16;99081.16;;;10.64;100.00
73651;BME280;61944;52.538;6.108;2023-10-19T05:04:43;99085.00;;;10.74;100.00
73651;BME280;61944;52.538;6.108;2023-10-19T05:07:12;99079.47;;;10.70;100.00
73651;BME280;61944;52.538;6.108;2023-10-19T05:09:40;99075.13;;;10.66;100.00
73651;BME280;61944;52.538;6.108;2023-10-19T05:12:06;99072.28;;;10.69;100.00
73651;BME280;61944;52.538;6.108;2023-10-19T05:14:35;99074.13;;;10.80;100.00
73651;BME280;61944;52.538;6.108;2023-10-19T05:17:01;99090.41;;;10.88;100.00
73651;BME280;61944;52.538;6.108;2023-10-19T05:19:30;99090.44;;;10.85;100.00
73651;BME280;61944;52.538;6.108;2023-10-19T05:21:56;99084.91;;;10.81;100.00
73651;BME280;61944;52.538;6.108;2023-10-19T05:24:21;99085.16;;;10.90;100.00
73651;BME280;61944;52.538;6.108;2023-10-19T05:26:47;99077.91;;;10.93;100.00
73651;BME280;61944;52.538;6.108;2023-10-19T05:29:13;99086.31;;;10.93;100.00
73651;BME280;61944;52.538;6.108;2023-10-19T05:31:38;99081.81;;;10.99;100.00
73651;BME280;61944;52.538;6.108;2023-10-19T05:34:03;99085.91;;;10.94;100.00
73651;BME280;61944;52.538;6.108;2023-10-19T05:36:29;99093.81;;;10.99;100.00
73651;BME280;61944;52.538;6.108;2023-10-19T05:38:55;99095.34;;;11.04;100.00
73651;BME280;61944;52.538;6.108;2023-10-19T05:41:20;99097.03;;;10.98;100.00
73651;BME280;61944;52.538;6.108;2023-10-19T05:43:46;99099.03;;;10.97;100.00
73651;BME280;61944;52.538;6.108;2023-10-19T05:46:12;99095.69;;;11.06;100.00
73651;BME280;61944;52.538;6.108;2023-10-19T05:48:39;99101.41;;;10.99;100.00
73651;BME280;61944;52.538;6.108;2023-10-19T05:51:04;99107.38;;;11.01;100.00
73651;BME280;61944;52.538;6.108;2023-10-19T05:53:29;99104.63;;;10.97;100.00
73651;BME280;61944;52.538;6.108;2023-10-19T05:55:55;99111.34;;;11.04;100.00
73651;BME280;61944;52.538;6.108;2023-10-19T05:58:20;99107.38;;;11.01;100.00
73651;BME280;61944;52.538;6.108;2023-10-19T06:00:45;99116.41;;;11.12;100.00
73651;BME280;61944;52.538;6.108;2023-10-19T06:03:11;99111.22;;;11.11;100.00
73651;BME280;61944;52.538;6.108;2023-10-19T06:05:37;99121.94;;;11.16;100.00
73651;BME280;61944;52.538;6.108;2023-10-19T06:08:08;99114.75;;;11.15;100.00
73651;BME280;61944;52.538;6.108;2023-10-19T06:10:35;99125.28;;;11.07;100.00
73651;BME280;61944;52.538;6.108;2023-10-19T06:13:04;99125.84;;;11.22;100.00
73651;BME280;61944;52.538;6.108;2023-10-19T06:15:30;99127.22;;;11.10;100.00
73651;BME280;61944;52.538;6.108;2023-10-19T06:17:56;99128.47;;;11.09;100.00
73651;BME280;61944;52.538;6.108;2023-10-19T06:20:21;99130.03;;;11.10;100.00
73651;BME280;61944;52.538;6.108;2023-10-19T06:22:56;99132.66;;;11.21;100.00
73651;BME280;61944;52.538;6.108;2023-10-19T06:25:29;99135.03;;;11.23;100.00
73651;BME280;61944;52.538;6.108;2023-10-19T06:27:55;99138.25;;;11.21;100.00
73651;BME280;61944;52.538;6.108;2023-10-19T06:30:23;99128.16;;;11.27;100.00
73651;BME280;61944;52.538;6.108;2023-10-19T06:32:55;99138.44;;;11.34;100.00
73651;BME280;61944;52.538;6.108;2023-10-19T06:35:21;99145.22;;;11.36;100.00
73651;BME280;61944;52.538;6.108;2023-10-19T06:37:47;99141.88;;;11.22;100.00
73651;BME280;61944;52.538;6.108;2023-10-19T06:40:14;99146.47;;;11.32;100.00
73651;BME280;61944;52.538;6.108;2023-10-19T06:42:41;99151.63;;;11.37;100.00
73651;BME280;61944;52.538;6.108;2023-10-19T06:45:07;99149.59;;;11.37;100.00
73651;BME280;61944;52.538;6.108;2023-10-19T06:47:33;99151.56;;;11.41;100.00
73651;BME280;61944;52.538;6.108;2023-10-19T06:50:04;99155.16;;;11.41;100.00
73651;BME280;61944;52.538;6.108;2023-10-19T06:52:32;99147.94;;;11.40;100.00
73651;BME280;61944;52.538;6.108;2023-10-19T06:54:57;99156.81;;;11.38;100.00
73651;BME280;61944;52.538;6.108;2023-10-19T06:57:23;99162.31;;;11.42;100.00
73651;BME280;61944;52.538;6.108;2023-10-19T06:59:48;99158.69;;;11.45;100.00
73651;BME280;61944;52.538;6.108;2023-10-19T07:02:13;99160.22;;;11.50;100.00
73651;BME280;61944;52.538;6.108;2023-10-19T07:04:39;99150.09;;;11.56;100.00
73651;BME280;61944;52.538;6.108;2023-10-19T07:07:04;99156.13;;;11.54;100.00
73651;BME280;61944;52.538;6.108;2023-10-19T07:09:29;99160.81;;;11.37;100.00
73651;BME280;61944;52.538;6.108;2023-10-19T07:11:55;99153.88;;;11.46;100.00
73651;BME280;61944;52.538;6.108;2023-10-19T07:14:22;99161.13;;;11.67;100.00
73651;BME280;61944;52.538;6.108;2023-10-19T07:16:49;99155.81;;;11.72;100.00
73651;BME280;61944;52.538;6.108;2023-10-19T07:19:15;99154.66;;;11.70;100.00
73651;BME280;61944;52.538;6.108;2023-10-19T07:21:40;99158.13;;;11.77;100.00
73651;BME280;61944;52.538;6.108;2023-10-19T07:24:08;99172.81;;;11.85;100.00
73651;BME280;61944;52.538;6.108;2023-10-19T07:26:36;99162.22;;;11.73;100.00
73651;BME280;61944;52.538;6.108;2023-10-19T07:29:09;99168.75;;;11.90;100.00
73651;BME280;61944;52.538;6.108;2023-10-19T07:31:35;99156.84;;;11.82;100.00
73651;BME280;61944;52.538;6.108;2023-10-19T07:34:01;99172.34;;;11.90;100.00
73651;BME280;61944;52.538;6.108;2023-10-19T07:36:26;99171.84;;;11.95;100.00
73651;BME280;61944;52.538;6.108;2023-10-19T07:38:51;99182.19;;;11.98;100.00
73651;BME280;61944;52.538;6.108;2023-10-19T07:41:17;99178.31;;;11.92;100.00
73651;BME280;61944;52.538;6.108;2023-10-19T07:43:42;99179.69;;;12.04;100.00
73651;BME280;61944;52.538;6.108;2023-10-19T07:46:12;99182.88;;;12.06;100.00
73651;BME280;61944;52.538;6.108;2023-10-19T07:48:37;99181.94;;;12.13;100.00
73651;BME280;61944;52.538;6.108;2023-10-19T07:51:03;99191.13;;;11.93;100.00
73651;BME280;61944;52.538;6.108;2023-10-19T07:53:29;99179.63;;;12.08;100.00
73651;BME280;61944;52.538;6.108;2023-10-19T07:55:55;99177.47;;;12.15;100.00
73651;BME280;61944;52.538;6.108;2023-10-19T07:58:22;99181.78;;;12.20;100.00
73651;BME280;61944;52.538;6.108;2023-10-19T08:00:47;99184.16;;;12.22;100.00
73651;BME280;61944;52.538;6.108;2023-10-19T08:03:13;99179.34;;;12.22;100.00
73651;BME280;61944;52.538;6.108;2023-10-19T08:05:41;99189.22;;;12.30;100.00
73651;BME280;61944;52.538;6.108;2023-10-19T08:08:06;99175.91;;;12.34;100.00
73651;BME280;61944;52.538;6.108;2023-10-19T08:10:32;99180.63;;;12.37;100.00
73651;BME280;61944;52.538;6.108;2023-10-19T08:12:59;99173.25;;;12.27;100.00
73651;BME280;61944;52.538;6.108;2023-10-19T08:15:25;99172.50;;;12.43;100.00
73651;BME280;61944;52.538;6.108;2023-10-19T08:17:51;99178.91;;;12.44;100.00
73651;BME280;61944;52.538;6.108;2023-10-19T08:20:18;99173.59;;;12.49;100.00
73651;BME280;61944;52.538;6.108;2023-10-19T08:22:55;99182.06;;;12.46;100.00
73651;BME280;61944;52.538;6.108;2023-10-19T08:25:25;99179.41;;;12.58;100.00
73651;BME280;61944;52.538;6.108;2023-10-19T08:27:54;99193.78;;;12.60;100.00
73651;BME280;61944;52.538;6.108;2023-10-19T08:30:22;99184.22;;;12.58;100.00
73651;BME280;61944;52.538;6.108;2023-10-19T08:32:48;99187.63;;;12.69;100.00
73651;BME280;61944;52.538;6.108;2023-10-19T08:35:15;99184.66;;;12.76;100.00
73651;BME280;61944;52.538;6.108;2023-10-19T08:37:43;99187.09;;;12.74;100.00
73651;BME280;61944;52.538;6.108;2023-10-19T08:40:12;99188.19;;;12.80;100.00
73651;BME280;61944;52.538;6.108;2023-10-19T08:42:49;99192.00;;;12.70;100.00
73651;BME280;61944;52.538;6.108;2023-10-19T08:45:16;99190.09;;;12.84;100.00
73651;BME280;61944;52.538;6.108;2023-10-19T08:47:57;99186.00;;;12.88;100.00
73651;BME280;61944;52.538;6.108;2023-10-19T08:50:28;99199.25;;;12.88;100.00
73651;BME280;61944;52.538;6.108;2023-10-19T08:52:55;99192.13;;;12.83;100.00
73651;BME280;61944;52.538;6.108;2023-10-19T08:55:21;99199.25;;;12.88;100.00
73651;BME280;61944;52.538;6.108;2023-10-19T08:57:52;99205.66;;;12.88;100.00
73651;BME280;61944;52.538;6.108;2023-10-19T09:00:18;99192.59;;;12.98;100.00
73651;BME280;61944;52.538;6.108;2023-10-19T09:02:47;99198.22;;;12.98;100.00
73651;BME280;61944;52.538;6.108;2023-10-19T09:05:13;99202.81;;;13.08;100.00
73651;BME280;61944;52.538;6.108;2023-10-19T09:07:48;99197.19;;;13.08;100.00
73651;BME280;61944;52.538;6.108;2023-10-19T09:10:26;99194.13;;;13.19;100.00
73651;BME280;61944;52.538;6.108;2023-10-19T09:13:03;99196.59;;;13.17;100.00
73651;BME280;61944;52.538;6.108;2023-10-19T09:15:29;99190.97;;;13.17;100.00
73651;BME280;61944;52.538;6.108;2023-10-19T09:17:58;99190.72;;;13.28;100.00
73651;BME280;61944;52.538;6.108;2023-10-19T09:20:23;99188.34;;;13.26;100.00
73651;BME280;61944;52.538;6.108;2023-10-19T09:22:54;99206.06;;;13.23;100.00
73651;BME280;61944;52.538;6.108;2023-10-19T09:25:21;99186.72;;;13.29;100.00
73651;BME280;61944;52.538;6.108;2023-10-19T09:27:48;99181.25;;;13.38;100.00
73651;BME280;61944;52.538;6.108;2023-10-19T09:30:15;99174.59;;;13.32;100.00
73651;BME280;61944;52.538;6.108;2023-10-19T09:32:46;99181.81;;;13.49;100.00
73651;BME280;61944;52.538;6.108;2023-10-19T09:35:12;99175.72;;;13.51;100.00
73651;BME280;61944;52.538;6.108;2023-10-19T09:37:41;99167.41;;;13.47;100.00
73651;BME280;61944;52.538;6.108;2023-10-19T09:40:07;99157.03;;;13.60;100.00
73651;BME280;61944;52.538;6.108;2023-10-19T09:42:40;99167.56;;;13.73;100.00
73651;BME280;61944;52.538;6.108;2023-10-19T09:45:11;99166.50;;;13.67;100.00
73651;BME280;61944;52.538;6.108;2023-10-19T09:47:41;99171.84;;;13.77;100.00
73651;BME280;61944;52.538;6.108;2023-10-19T09:50:11;99172.47;;;13.85;100.00
73651;BME280;61944;52.538;6.108;2023-10-19T09:52:37;99173.47;;;13.91;100.00
73651;BME280;61944;52.538;6.108;2023-10-19T09:55:10;99162.41;;;14.00;100.00
73651;BME280;61944;52.538;6.108;2023-10-19T09:57:47;99160.94;;;13.96;100.00
73651;BME280;61944;52.538;6.108;2023-10-19T10:00:14;99167.81;;;14.08;100.00
73651;BME280;61944;52.538;6.108;2023-10-19T10:02:42;99169.91;;;14.20;100.00
73651;BME280;61944;52.538;6.108;2023-10-19T10:10:51;99171.50;;;14.21;100.00
73651;BME280;61944;52.538;6.108;2023-10-19T10:15:56;99173.47;;;14.37;100.00
73651;BME280;61944;52.538;6.108;2023-10-19T10:18:32;99185.44;;;14.54;100.00
73651;BME280;61944;52.538;6.108;2023-10-19T10:21:10;99183.06;;;14.52;100.00
73651;BME280;61944;52.538;6.108;2023-10-19T10:23:44;99184.72;;;14.66;100.00
73651;BME280;61944;52.538;6.108;2023-10-19T10:26:13;99180.72;;;14.51;100.00
73651;BME280;61944;52.538;6.108;2023-10-19T10:28:40;99179.44;;;14.68;100.00
73651;BME280;61944;52.538;6.108;2023-10-19T10:31:21;99186.53;;;14.86;100.00
73651;BME280;61944;52.538;6.108;2023-10-19T10:33:51;99169.53;;;14.76;100.00
73651;BME280;61944;52.538;6.108;2023-10-19T10:36:18;99171.66;;;14.72;100.00
73651;BME280;61944;52.538;6.108;2023-10-19T10:38:49;99147.50;;;16.09;100.00
73651;BME280;61944;52.538;6.108;2023-10-19T10:41:25;99136.13;;;16.65;100.00
73651;BME280;61944;52.538;6.108;2023-10-19T10:43:54;99147.59;;;15.70;100.00
73651;BME280;61944;52.538;6.108;2023-10-19T10:46:22;99154.31;;;15.38;100.00
73651;BME280;61944;52.538;6.108;2023-10-19T10:48:47;99160.06;;;15.34;100.00
73651;BME280;61944;52.538;6.108;2023-10-19T10:51:27;99164.34;;;15.26;100.00
73651;BME280;61944;52.538;6.108;2023-10-19T10:53:57;99166.69;;;15.53;100.00
73651;BME280;61944;52.538;6.108;2023-10-19T10:56:23;99163.41;;;15.80;100.00
73651;BME280;61944;52.538;6.108;2023-10-19T10:58:49;99154.66;;;16.00;100.00
73651;BME280;61944;52.538;6.108;2023-10-19T11:01:24;99157.09;;;16.33;100.00
73651;BME280;61944;52.538;6.108;2023-10-19T11:04:05;99157.19;;;16.42;100.00
73651;BME280;61944;52.538;6.108;2023-10-19T11:06:30;99145.94;;;16.52;100.00
73651;BME280;61944;52.538;6.108;2023-10-19T11:08:56;99145.88;;;16.42;100.00
73651;BME280;61944;52.538;6.108;2023-10-19T11:11:21;99149.41;;;16.34;100.00
73651;BME280;61944;52.538;6.108;2023-10-19T11:13:47;99151.38;;;16.46;100.00
73651;BME280;61944;52.538;6.108;2023-10-19T11:16:22;99145.75;;;16.24;100.00
73651;BME280;61944;52.538;6.108;2023-10-19T11:18:48;99148.81;;;16.17;100.00
73651;BME280;61944;52.538;6.108;2023-10-19T11:21:15;99143.81;;;15.99;100.00
73651;BME280;61944;52.538;6.108;2023-10-19T11:23:47;99148.09;;;16.03;100.00
73651;BME280;61944;52.538;6.108;2023-10-19T11:26:15;99143.59;;;15.93;100.00
73651;BME280;61944;52.538;6.108;2023-10-19T11:28:41;99143.38;;;16.00;100.00
73651;BME280;61944;52.538;6.108;2023-10-19T11:31:21;99143.38;;;16.00;100.00
73651;BME280;61944;52.538;6.108;2023-10-19T11:33:48;99138.22;;;16.08;100.00
73651;BME280;61944;52.538;6.108;2023-10-19T11:36:15;99132.84;;;16.23;100.00
73651;BME280;61944;52.538;6.108;2023-10-19T11:38:44;99117.22;;;16.31;100.00
73651;BME280;61944;52.538;6.108;2023-10-19T11:41:11;99114.75;;;16.33;100.00
73651;BME280;61944;52.538;6.108;2023-10-19T11:43:39;99119.41;;;16.27;100.00
73651;BME280;61944;52.538;6.108;2023-10-19T11:46:05;99123.16;;;16.24;100.00
73651;BME280;61944;52.538;6.108;2023-10-19T11:48:34;99115.03;;;16.26;100.00
73651;BME280;61944;52.538;6.108;2023-10-19T11:51:01;99107.66;;;16.29;100.00
73651;BME280;61944;52.538;6.108;2023-10-19T11:53:31;99106.53;;;16.26;100.00
73651;BME280;61944;52.538;6.108;2023-10-19T11:55:59;99098.19;;;16.22;100.00
73651;BME280;61944;52.538;6.108;2023-10-19T11:58:26;99107.94;;;16.21;100.00
73651;BME280;61944;52.538;6.108;2023-10-19T12:00:51;99104.47;;;16.17;100.00
73651;BME280;61944;52.538;6.108;2023-10-19T12:03:17;99085.19;;;16.25;100.00
73651;BME280;61944;52.538;6.108;2023-10-19T12:05:43;99082.69;;;16.27;100.00
73651;BME280;61944;52.538;6.108;2023-10-19T12:08:09;99085.84;;;16.29;100.00
73651;BME280;61944;52.538;6.108;2023-10-19T12:10:34;99075.22;;;16.33;100.00
73651;BME280;61944;52.538;6.108;2023-10-19T12:13:06;99098.44;;;16.37;100.00
73651;BME280;61944;52.538;6.108;2023-10-19T12:15:32;99092.16;;;16.33;100.00
73651;BME280;61944;52.538;6.108;2023-10-19T12:18:01;99092.59;;;16.32;100.00
73651;BME280;61944;52.538;6.108;2023-10-19T12:20:30;99090.06;;;16.24;100.00
73651;BME280;61944;52.538;6.108;2023-10-19T12:23:00;99099.63;;;16.27;100.00
73651;BME280;61944;52.538;6.108;2023-10-19T12:25:26;99101.22;;;16.28;100.00
73651;BME280;61944;52.538;6.108;2023-10-19T12:27:58;99084.88;;;16.23;100.00
73651;BME280;61944;52.538;6.108;2023-10-19T12:30:23;99092.16;;;16.33;100.00
73651;BME280;61944;52.538;6.108;2023-10-19T12:32:52;99089.78;;;16.32;100.00
73651;BME280;61944;52.538;6.108;2023-10-19T12:35:17;99087.94;;;16.38;100.00
73651;BME280;61944;52.538;6.108;2023-10-19T12:37:46;99092.16;;;16.33;100.00
73651;BME280;61944;52.538;6.108;2023-10-19T12:40:13;99097.16;;;16.29;100.00
73651;BME280;61944;52.538;6.108;2023-10-19T12:42:55;99092.16;;;16.33;100.00
73651;BME280;61944;52.538;6.108;2023-10-19T12:45:24;99085.59;;;16.36;100.00
73651;BME280;61944;52.538;6.108;2023-10-19T12:47:50;99090.97;;;16.43;100.00
73651;BME280;61944;52.538;6.108;2023-10-19T12:50:18;99087.69;;;16.45;100.00
73651;BME280;61944;52.538;6.108;2023-10-19T12:52:48;99089.13;;;16.50;100.00
73651;BME280;61944;52.538;6.108;2023-10-19T12:55:14;99071.31;;;16.62;100.00
73651;BME280;61944;52.538;6.108;2023-10-19T12:57:40;99064.44;;;16.72;100.00
73651;BME280;61944;52.538;6.108;2023-10-19T13:00:06;99065.97;;;16.64;100.00
73651;BME280;61944;52.538;6.108;2023-10-19T13:02:49;99068.47;;;16.62;100.00
73651;BME280;61944;52.538;6.108;2023-10-19T13:05:15;99061.53;;;16.54;100.00
73651;BME280;61944;52.538;6.108;2023-10-19T13:07:44;99059.13;;;16.43;100.00
73651;BME280;61944;52.538;6.108;2023-10-19T13:10:09;99063.78;;;16.37;100.00
73651;BME280;61944;52.538;6.108;2023-10-19T13:12:36;99073.38;;;16.39;100.00
73651;BME280;61944;52.538;6.108;2023-10-19T13:15:02;99066.91;;;16.30;100.00